createdAt,value
2023-05-12T00:02:10.593Z,53.90
2023-05-12T00:04:39.624Z,53.90
2023-05-12T00:07:09.044Z,53.90
2023-05-12T00:09:38.387Z,54.00
2023-05-12T00:12:06.963Z,53.90
2023-05-12T00:14:35.359Z,53.80
2023-05-12T00:17:03.961Z,53.80
2023-05-12T00:19:32.777Z,53.80
2023-05-12T00:22:02.039Z,53.80
2023-05-12T00:24:31.229Z,53.80
2023-05-12T00:27:00.152Z,53.80
2023-05-12T00:29:29.606Z,53.70
2023-05-12T00:31:59.017Z,53.80
2023-05-12T00:34:28.404Z,53.70
2023-05-12T00:36:56.765Z,53.80
2023-05-12T00:39:25.676Z,53.80
2023-05-12T00:41:53.786Z,53.70
2023-05-12T00:44:22.697Z,53.70
2023-05-12T00:46:51.772Z,53.70
2023-05-12T00:49:20.541Z,53.70
2023-05-12T00:51:48.974Z,53.80
2023-05-12T00:54:17.827Z,53.70
2023-05-12T00:56:46.734Z,53.70
2023-05-12T00:59:16.139Z,53.70
2023-05-12T01:01:45.200Z,53.80
2023-05-12T01:04:14.151Z,53.70
2023-05-12T01:06:42.628Z,53.80
2023-05-12T01:09:11.631Z,53.70
2023-05-12T01:11:40.095Z,53.70
2023-05-12T01:14:08.748Z,53.70
2023-05-12T01:16:38.679Z,53.60
2023-05-12T01:19:08.244Z,53.70
2023-05-12T01:21:37.740Z,53.60
2023-05-12T01:24:06.845Z,53.60
2023-05-12T01:26:36.467Z,53.60
2023-05-12T01:29:05.585Z,53.60
2023-05-12T01:31:34.621Z,53.60
2023-05-12T01:34:03.102Z,53.60
2023-05-12T01:36:31.742Z,53.60
2023-05-12T01:39:00.958Z,53.60
2023-05-12T01:41:30.153Z,53.60
2023-05-12T01:43:58.636Z,53.60
2023-05-12T01:46:27.280Z,53.60
2023-05-12T01:48:59.284Z,53.60
2023-05-12T01:51:29.392Z,53.60
2023-05-12T01:54:01.090Z,53.60
2023-05-12T01:56:34.355Z,53.60
2023-05-12T01:59:03.184Z,53.60
2023-05-12T02:01:32.206Z,53.60
2023-05-12T02:04:01.209Z,53.60
2023-05-12T02:06:30.480Z,53.50
2023-05-12T02:08:59.379Z,53.50
2023-05-12T02:11:28.729Z,53.50
2023-05-12T02:13:57.910Z,53.60
2023-05-12T02:16:26.728Z,53.50
2023-05-12T02:18:55.287Z,53.50
2023-05-12T02:21:23.843Z,53.50
2023-05-12T02:23:54.263Z,53.50
2023-05-12T02:26:23.675Z,53.60
2023-05-12T02:28:53.644Z,53.60
2023-05-12T02:31:23.218Z,53.60
2023-05-12T02:33:52.634Z,53.50
2023-05-12T02:36:21.714Z,53.50
2023-05-12T02:38:51.137Z,53.50
2023-05-12T02:41:20.034Z,53.50
2023-05-12T02:43:49.206Z,53.50
2023-05-12T02:46:19.353Z,53.50
2023-05-12T02:48:48.330Z,53.50
2023-05-12T02:51:17.235Z,53.60
2023-05-12T02:53:46.016Z,53.60
2023-05-12T02:56:14.467Z,53.50
2023-05-12T02:58:42.894Z,53.50
2023-05-12T03:01:12.005Z,53.50
2023-05-12T03:03:42.172Z,53.50
2023-05-12T03:06:11.497Z,53.50
2023-05-12T03:08:40.240Z,53.50
2023-05-12T03:11:08.605Z,53.60
2023-05-12T03:13:37.112Z,54.10
2023-05-12T03:16:06.054Z,53.60
2023-05-12T03:18:34.525Z,53.60
2023-05-12T03:21:03.542Z,53.50
2023-05-12T03:23:32.463Z,53.50
2023-05-12T03:26:00.550Z,53.50
2023-05-12T03:28:28.843Z,53.60
2023-05-12T03:30:57.821Z,53.60
2023-05-12T03:33:26.993Z,53.60
2023-05-12T03:35:56.255Z,53.70
2023-05-12T03:38:25.169Z,53.60
2023-05-12T03:40:53.450Z,53.50
2023-05-12T03:43:22.600Z,53.60
2023-05-12T03:45:51.504Z,53.60
2023-05-12T03:48:20.768Z,53.60
2023-05-12T03:50:49.230Z,53.60
2023-05-12T03:53:18.547Z,53.60
2023-05-12T03:55:47.504Z,53.60
2023-05-12T03:58:16.423Z,53.60
2023-05-12T04:00:45.398Z,53.60
2023-05-12T04:03:13.922Z,53.60
2023-05-12T04:05:42.962Z,53.60
2023-05-12T04:08:11.535Z,53.60
2023-05-12T04:10:40.027Z,53.60
2023-05-12T04:13:08.977Z,53.60
2023-05-12T04:15:37.879Z,53.60
2023-05-12T04:18:06.697Z,53.60
2023-05-12T04:20:35.062Z,53.60
2023-05-12T04:23:03.581Z,53.70
2023-05-12T04:25:32.665Z,53.60
2023-05-12T04:28:01.653Z,53.60
2023-05-12T04:30:30.646Z,53.60
2023-05-12T04:33:00.786Z,53.60
2023-05-12T04:35:29.746Z,53.60
2023-05-12T04:37:58.834Z,53.60
2023-05-12T04:40:27.833Z,53.70
2023-05-12T04:42:56.956Z,53.70
2023-05-12T04:45:26.194Z,54.30
2023-05-12T04:47:54.600Z,53.70
2023-05-12T04:50:23.466Z,53.70
2023-05-12T04:52:52.288Z,53.70
2023-05-12T04:55:21.705Z,54.30
2023-05-12T04:57:50.865Z,53.80
2023-05-12T05:00:20.364Z,53.80
2023-05-12T05:02:50.085Z,53.80
2023-05-12T05:05:18.872Z,53.80
2023-05-12T05:07:47.601Z,53.70
2023-05-12T05:10:16.011Z,53.80
2023-05-12T05:12:46.010Z,53.70
2023-05-12T05:15:15.103Z,53.70
2023-05-12T05:17:43.675Z,53.70
2023-05-12T05:20:15.443Z,53.70
2023-05-12T05:22:45.843Z,53.70
2023-05-12T05:25:15.540Z,53.70
2023-05-12T05:27:44.634Z,53.70
2023-05-12T05:30:12.711Z,53.70
2023-05-12T05:32:43.328Z,53.80
2023-05-12T05:35:13.302Z,53.70
2023-05-12T05:37:46.488Z,53.80
2023-05-12T05:40:15.629Z,53.70
2023-05-12T05:42:44.595Z,53.60
2023-05-12T05:45:13.230Z,53.50
2023-05-12T05:47:42.579Z,53.40
2023-05-12T05:50:11.566Z,53.30
2023-05-12T05:52:42.168Z,53.30
2023-05-12T05:55:11.593Z,53.20
2023-05-12T05:57:40.593Z,53.20
2023-05-12T06:00:08.364Z,53.20
2023-05-12T06:02:45.708Z,53.10
2023-05-12T06:05:18.966Z,53.00
2023-05-12T06:07:48.103Z,52.80
2023-05-12T06:10:17.188Z,52.70
2023-05-12T06:12:46.176Z,52.60
2023-05-12T06:15:15.901Z,52.40
2023-05-12T06:17:44.410Z,52.30
2023-05-12T06:20:12.902Z,52.30
2023-05-12T06:22:42.206Z,52.20
2023-05-12T06:25:11.179Z,52.20
2023-05-12T06:27:39.601Z,52.20
2023-05-12T06:30:08.036Z,52.20
2023-05-12T06:32:36.903Z,52.00
2023-05-12T06:35:06.283Z,52.00
2023-05-12T06:37:34.752Z,51.90
2023-05-12T06:40:03.859Z,51.80
2023-05-12T06:42:32.394Z,51.70
2023-05-12T06:45:03.918Z,51.60
2023-05-12T06:47:33.692Z,51.60
2023-05-12T06:50:02.561Z,51.50
2023-05-12T06:52:31.871Z,51.50
2023-05-12T06:55:00.413Z,51.50
2023-05-12T06:57:28.535Z,51.20
2023-05-12T06:59:57.230Z,51.10
2023-05-12T07:02:26.173Z,50.90
2023-05-12T07:04:55.526Z,50.70
2023-05-12T07:07:24.469Z,50.50
2023-05-12T07:09:53.825Z,49.70
2023-05-12T07:12:23.070Z,50.20
2023-05-12T07:14:52.401Z,50.00
2023-05-12T07:17:21.528Z,49.90
2023-05-12T07:19:49.869Z,49.70
2023-05-12T07:22:19.178Z,49.40
2023-05-12T07:24:48.620Z,49.40
2023-05-12T07:27:18.037Z,49.20
2023-05-12T07:29:46.988Z,49.20
2023-05-12T07:32:16.404Z,49.10
2023-05-12T07:34:45.350Z,49.00
2023-05-12T07:37:14.109Z,48.90
2023-05-12T07:39:42.853Z,48.60
2023-05-12T07:42:11.693Z,48.40
2023-05-12T07:44:40.628Z,48.10
2023-05-12T07:47:10.500Z,48.00
2023-05-12T07:49:39.875Z,47.80
2023-05-12T07:52:08.636Z,47.70
2023-05-12T07:54:37.384Z,47.60
2023-05-12T07:57:06.699Z,47.50
2023-05-12T07:59:35.400Z,47.40
2023-05-12T08:02:04.697Z,47.30
2023-05-12T08:04:33.589Z,47.20
2023-05-12T08:07:03.015Z,47.10
2023-05-12T08:09:31.871Z,46.90
2023-05-12T08:12:00.616Z,46.90
2023-05-12T08:14:29.815Z,47.30
2023-05-12T08:16:59.162Z,46.50
2023-05-12T08:19:28.462Z,46.20
2023-05-12T08:21:57.357Z,46.20
2023-05-12T08:24:26.773Z,46.10
2023-05-12T08:26:55.817Z,45.80
2023-05-12T08:29:25.184Z,45.60
2023-05-12T08:31:58.135Z,45.30
2023-05-12T08:34:26.420Z,45.00
2023-05-12T08:36:54.586Z,44.70
2023-05-12T08:39:23.486Z,44.20
2023-05-12T08:41:52.097Z,43.50
2023-05-12T08:44:21.477Z,42.70
2023-05-12T08:46:50.073Z,41.60
2023-05-12T08:49:18.368Z,40.30
2023-05-12T08:51:56.492Z,39.70
2023-05-12T08:54:25.904Z,39.20
2023-05-12T08:59:25.733Z,36.60
2023-05-12T09:01:55.194Z,35.40
2023-05-12T09:04:24.219Z,35.50
2023-05-12T09:06:55.534Z,36.40
2023-05-12T09:09:25.014Z,37.40
2023-05-12T09:11:53.827Z,38.50
2023-05-12T09:14:23.035Z,39.70
2023-05-12T09:16:52.317Z,40.40
2023-05-12T09:19:21.215Z,40.20
2023-05-12T09:21:50.075Z,40.40
2023-05-12T09:24:19.350Z,40.70
2023-05-12T09:26:48.727Z,40.70
2023-05-12T09:29:30.751Z,40.60
2023-05-12T09:32:00.915Z,40.40
2023-05-12T09:34:29.712Z,40.10
2023-05-12T09:36:58.662Z,39.80
2023-05-12T09:39:27.499Z,39.30
2023-05-12T09:41:56.838Z,38.80
2023-05-12T09:44:26.043Z,38.30
2023-05-12T09:46:54.879Z,38.40
2023-05-12T09:49:23.682Z,38.30
2023-05-12T09:51:52.465Z,38.40
2023-05-12T09:54:21.746Z,39.00
2023-05-12T09:56:50.990Z,39.00
2023-05-12T09:59:20.534Z,38.90
2023-05-12T10:01:49.971Z,39.10
2023-05-12T10:04:19.395Z,39.40
2023-05-12T10:06:48.815Z,39.20
2023-05-12T10:09:17.747Z,39.00
2023-05-12T10:11:46.333Z,38.60
2023-05-12T10:14:15.390Z,38.80
2023-05-12T10:16:43.648Z,38.80
2023-05-12T10:19:13.042Z,38.60
2023-05-12T10:21:42.475Z,38.40
2023-05-12T10:24:11.304Z,38.70
2023-05-12T10:26:40.325Z,38.10
2023-05-12T10:29:09.730Z,38.10
2023-05-12T10:31:38.705Z,38.10
2023-05-12T10:34:07.699Z,37.80
2023-05-12T10:36:37.028Z,37.60
2023-05-12T10:39:06.343Z,37.60
2023-05-12T10:41:35.435Z,37.60
2023-05-12T10:44:03.588Z,37.70
2023-05-12T10:46:32.597Z,37.70
2023-05-12T10:49:00.958Z,37.60
2023-05-12T10:51:29.609Z,37.40
2023-05-12T10:53:58.829Z,37.30
2023-05-12T10:56:28.482Z,37.10
2023-05-12T10:58:58.380Z,36.60
2023-05-12T11:01:28.075Z,36.20
2023-05-12T11:03:58.286Z,35.90
2023-05-12T11:06:27.911Z,36.00
2023-05-12T11:08:58.860Z,36.60
2023-05-12T11:11:28.106Z,37.10
2023-05-12T11:13:57.396Z,37.40
2023-05-12T11:16:26.772Z,37.70
2023-05-12T11:18:56.151Z,38.50
2023-05-12T11:21:25.136Z,37.80
2023-05-12T11:23:53.695Z,37.40
2023-05-12T11:26:22.411Z,35.70
2023-05-12T11:28:51.756Z,33.90
2023-05-12T11:31:21.172Z,32.30
2023-05-12T11:33:56.052Z,31.30
2023-05-12T11:36:33.998Z,30.70
2023-05-12T11:39:03.312Z,30.70
2023-05-12T11:41:32.708Z,30.40
2023-05-12T11:44:02.031Z,29.90
2023-05-12T11:46:32.371Z,29.90
2023-05-12T11:49:02.737Z,29.50
2023-05-12T11:51:31.592Z,29.80
2023-05-12T11:54:00.366Z,30.40
2023-05-12T11:56:29.583Z,30.70
2023-05-12T11:58:58.510Z,30.90
2023-05-12T12:01:27.785Z,31.40
2023-05-12T12:03:57.289Z,32.00
2023-05-12T12:06:26.203Z,32.50
2023-05-12T12:08:56.423Z,32.70
2023-05-12T12:11:26.721Z,32.90
2023-05-12T12:13:55.666Z,33.30
2023-05-12T12:16:24.530Z,33.50
2023-05-12T12:18:53.931Z,33.70
2023-05-12T12:21:22.762Z,33.90
2023-05-12T12:23:52.023Z,33.10
2023-05-12T12:26:21.253Z,32.30
2023-05-12T12:28:50.507Z,31.50
2023-05-12T12:31:19.953Z,30.90
2023-05-12T12:33:49.008Z,31.00
2023-05-12T12:36:17.514Z,31.50
2023-05-12T12:38:45.739Z,32.40
2023-05-12T12:41:14.662Z,33.10
2023-05-12T12:43:44.084Z,33.70
2023-05-12T12:46:13.466Z,34.20
2023-05-12T12:48:42.861Z,34.60
2023-05-12T12:51:12.138Z,35.00
2023-05-12T12:53:41.444Z,35.50
2023-05-12T12:56:10.825Z,35.90
2023-05-12T12:58:40.105Z,36.20
2023-05-12T13:01:08.983Z,36.40
2023-05-12T13:03:38.387Z,36.50
2023-05-12T13:06:07.079Z,36.70
2023-05-12T13:08:36.371Z,36.70
2023-05-12T13:11:05.782Z,36.80
2023-05-12T13:13:34.679Z,36.70
2023-05-12T13:16:03.914Z,36.80
2023-05-12T13:18:32.805Z,36.70
2023-05-12T13:21:02.055Z,36.80
2023-05-12T13:23:30.957Z,36.90
2023-05-12T13:25:59.560Z,37.10
2023-05-12T13:28:28.236Z,37.20
2023-05-12T13:30:57.748Z,37.30
2023-05-12T13:33:27.148Z,37.20
2023-05-12T13:35:56.449Z,37.20
2023-05-12T13:38:25.278Z,36.80
2023-05-12T13:40:54.541Z,35.90
2023-05-12T13:43:23.739Z,34.50
2023-05-12T13:45:52.629Z,33.20
2023-05-12T13:48:21.889Z,32.30
2023-05-12T13:50:50.684Z,32.30
2023-05-12T13:53:19.538Z,33.00
2023-05-12T13:55:48.614Z,34.40
2023-05-12T13:58:17.393Z,34.50
2023-05-12T14:00:46.757Z,35.20
2023-05-12T14:03:16.042Z,36.00
2023-05-12T14:05:45.247Z,36.50
2023-05-12T14:08:14.057Z,36.70
2023-05-12T14:10:43.418Z,36.80
2023-05-12T14:13:12.815Z,37.00
2023-05-12T14:15:48.807Z,37.30
2023-05-12T14:18:18.645Z,37.70
2023-05-12T14:20:47.942Z,38.00
2023-05-12T14:23:17.017Z,38.40
2023-05-12T14:25:44.936Z,38.70
2023-05-12T14:28:13.803Z,39.10
2023-05-12T14:30:43.277Z,39.60
2023-05-12T14:33:12.723Z,39.90
2023-05-12T14:35:43.241Z,40.30
2023-05-12T14:38:14.050Z,40.60
2023-05-12T14:40:43.525Z,40.90
2023-05-12T14:43:13.027Z,41.10
2023-05-12T14:45:41.876Z,41.30
2023-05-12T14:48:11.156Z,41.40
2023-05-12T14:50:39.451Z,41.60
2023-05-12T14:53:08.728Z,41.70
2023-05-12T14:55:37.959Z,41.70
2023-05-12T14:58:07.064Z,42.10
2023-05-12T15:00:35.712Z,41.90
2023-05-12T15:03:05.058Z,42.10
2023-05-12T15:05:52.553Z,42.20
2023-05-12T15:08:21.776Z,42.20
2023-05-12T15:10:51.144Z,42.40
2023-05-12T15:13:20.034Z,42.50
2023-05-12T15:15:50.230Z,42.70
2023-05-12T15:18:20.374Z,42.50
2023-05-12T15:20:49.203Z,42.40
2023-05-12T15:23:18.732Z,42.30
2023-05-12T15:25:47.903Z,42.20
2023-05-12T15:28:16.554Z,42.20
2023-05-12T15:30:45.795Z,42.20
2023-05-12T15:33:15.013Z,42.10
2023-05-12T15:35:47.845Z,42.10
2023-05-12T15:38:16.610Z,42.20
2023-05-12T15:40:45.462Z,42.40
2023-05-12T15:43:14.722Z,42.60
2023-05-12T15:45:43.984Z,42.80
2023-05-12T15:48:13.391Z,43.00
2023-05-12T15:50:42.688Z,43.10
2023-05-12T15:53:11.872Z,43.30
2023-05-12T15:55:40.709Z,43.30
2023-05-12T15:58:10.035Z,43.60
2023-05-12T16:00:39.351Z,43.80
2023-05-12T16:03:08.777Z,44.10
2023-05-12T16:05:37.797Z,44.30
2023-05-12T16:08:06.689Z,44.50
2023-05-12T16:10:35.984Z,44.60
2023-05-12T16:13:05.397Z,44.70
2023-05-12T16:15:34.293Z,44.80
2023-05-12T16:18:03.244Z,44.80
2023-05-12T16:20:32.562Z,44.90
2023-05-12T16:23:02.089Z,45.00
2023-05-12T16:25:31.056Z,45.10
2023-05-12T16:27:59.922Z,45.10
2023-05-12T16:30:29.147Z,45.10
2023-05-12T16:32:57.978Z,45.20
2023-05-12T16:35:27.050Z,45.20
2023-05-12T16:37:55.881Z,45.30
2023-05-12T16:40:25.049Z,45.40
2023-05-12T16:42:53.868Z,45.50
2023-05-12T16:45:23.537Z,45.50
2023-05-12T16:47:52.965Z,45.60
2023-05-12T16:50:21.417Z,45.60
2023-05-12T16:52:56.583Z,45.50
2023-05-12T16:55:25.791Z,45.50
2023-05-12T16:57:54.845Z,45.60
2023-05-12T17:00:23.052Z,45.60
2023-05-12T17:02:52.366Z,45.60
2023-05-12T17:05:21.967Z,45.70
2023-05-12T17:07:51.304Z,45.70
2023-05-12T17:10:20.627Z,45.80
2023-05-12T17:12:49.995Z,45.90
2023-05-12T17:15:19.281Z,46.00
2023-05-12T17:17:48.656Z,46.10
2023-05-12T17:20:18.085Z,46.20
2023-05-12T17:22:47.647Z,46.30
2023-05-12T17:25:16.999Z,46.50
2023-05-12T17:27:45.902Z,46.60
2023-05-12T17:30:14.823Z,46.60
2023-05-12T17:32:43.715Z,46.70
2023-05-12T17:35:13.175Z,46.80
2023-05-12T17:37:42.075Z,46.90
2023-05-12T17:40:11.540Z,46.90
2023-05-12T17:42:40.645Z,46.90
2023-05-12T17:45:09.095Z,46.90
2023-05-12T17:47:37.779Z,47.00
2023-05-12T17:50:07.126Z,47.00
2023-05-12T17:52:36.315Z,47.10
2023-05-12T17:55:05.579Z,47.10
2023-05-12T17:57:34.998Z,47.70
2023-05-12T18:00:03.875Z,47.30
2023-05-12T18:02:41.854Z,47.20
2023-05-12T18:05:10.761Z,47.30
2023-05-12T18:07:40.198Z,47.40
2023-05-12T18:10:09.542Z,47.50
2023-05-12T18:12:38.436Z,47.60
2023-05-12T18:15:07.836Z,47.60
2023-05-12T18:17:37.370Z,47.70
2023-05-12T18:20:06.493Z,47.80
2023-05-12T18:22:34.475Z,47.90
2023-05-12T18:25:03.147Z,47.90
2023-05-12T18:27:32.435Z,48.00
2023-05-12T18:30:01.432Z,48.10
2023-05-12T18:32:30.128Z,48.10
2023-05-12T18:34:59.447Z,48.20
2023-05-12T18:37:28.667Z,48.20
2023-05-12T18:39:57.849Z,48.20
2023-05-12T18:42:26.972Z,48.30
2023-05-12T18:44:55.796Z,48.30
2023-05-12T18:47:24.961Z,48.40
2023-05-12T18:49:54.284Z,48.40
2023-05-12T18:52:23.183Z,48.50
2023-05-12T18:54:51.934Z,49.20
2023-05-12T18:57:21.170Z,48.60
2023-05-12T18:59:50.060Z,48.60
2023-05-12T19:02:19.541Z,48.70
2023-05-12T19:04:48.711Z,48.80
2023-05-12T19:07:16.982Z,48.90
2023-05-12T19:09:46.242Z,48.90
2023-05-12T19:12:19.396Z,49.00
2023-05-12T19:14:48.204Z,49.00
2023-05-12T19:17:17.081Z,49.10
2023-05-12T19:19:46.456Z,49.20
2023-05-12T19:22:15.713Z,49.10
2023-05-12T19:24:45.172Z,49.20
2023-05-12T19:27:14.330Z,49.30
2023-05-12T19:29:42.633Z,49.30
2023-05-12T19:32:11.014Z,49.40
2023-05-12T19:34:40.492Z,49.50
2023-05-12T19:37:09.900Z,49.50
2023-05-12T19:39:39.360Z,49.60
2023-05-12T19:42:08.704Z,49.70
2023-05-12T19:44:37.996Z,49.90
2023-05-12T19:47:07.409Z,49.80
2023-05-12T19:49:36.107Z,49.90
2023-05-12T19:52:04.992Z,50.00
2023-05-12T19:54:33.935Z,50.00
2023-05-12T19:57:02.727Z,50.00
2023-05-12T19:59:31.643Z,50.10
2023-05-12T20:02:00.987Z,50.10
2023-05-12T20:04:30.376Z,50.10
2023-05-12T20:06:59.353Z,50.20
2023-05-12T20:09:29.016Z,50.30
2023-05-12T20:11:58.252Z,50.30
2023-05-12T20:14:27.052Z,50.30
2023-05-12T20:16:55.925Z,50.40
2023-05-12T20:19:25.294Z,50.50
2023-05-12T20:21:54.713Z,50.50
2023-05-12T20:24:23.422Z,50.50
2023-05-12T20:26:51.968Z,50.60
2023-05-12T20:29:20.921Z,50.60
2023-05-12T20:31:49.107Z,50.60
2023-05-12T20:34:18.044Z,50.70
2023-05-12T20:36:47.310Z,50.60
2023-05-12T20:39:16.203Z,50.60
2023-05-12T20:41:44.981Z,50.70
2023-05-12T20:44:14.281Z,50.60
2023-05-12T20:46:43.188Z,50.70
2023-05-12T20:49:12.386Z,50.70
2023-05-12T20:51:41.663Z,50.70
2023-05-12T20:54:11.078Z,50.70
2023-05-12T20:56:40.508Z,50.70
2023-05-12T20:59:09.401Z,50.70
2023-05-12T21:01:38.475Z,50.70
2023-05-12T21:04:07.208Z,50.60
2023-05-12T21:06:36.488Z,51.30
2023-05-12T21:09:05.470Z,50.60
2023-05-12T21:11:33.837Z,50.70
2023-05-12T21:14:02.063Z,50.70
2023-05-12T21:16:31.480Z,50.70
2023-05-12T21:19:00.870Z,50.70
2023-05-12T21:21:30.267Z,50.60
2023-05-12T21:23:59.569Z,50.70
2023-05-12T21:26:28.796Z,50.70
2023-05-12T21:28:57.771Z,50.60
2023-05-12T21:31:26.936Z,50.60
2023-05-12T21:33:56.223Z,51.20
2023-05-12T21:36:25.591Z,50.60
2023-05-12T21:38:54.997Z,50.60
2023-05-12T21:41:24.371Z,50.60
2023-05-12T21:43:53.143Z,50.50
2023-05-12T21:46:22.111Z,50.50
2023-05-12T21:48:50.234Z,50.50
2023-05-12T21:51:19.505Z,50.50
2023-05-12T21:53:48.919Z,50.50
2023-05-12T21:56:18.284Z,50.50
2023-05-12T21:58:47.662Z,50.50
2023-05-12T22:01:16.616Z,50.50
2023-05-12T22:03:45.889Z,50.50
2023-05-12T22:06:14.767Z,50.50
2023-05-12T22:08:43.389Z,50.50
2023-05-12T22:11:12.130Z,50.40
2023-05-12T22:13:41.356Z,50.40
2023-05-12T22:16:10.519Z,50.40
2023-05-12T22:18:38.743Z,50.50
2023-05-12T22:21:08.173Z,50.40
2023-05-12T22:23:37.689Z,50.30
2023-05-12T22:26:07.156Z,50.40
2023-05-12T22:28:36.029Z,50.40
2023-05-12T22:31:05.248Z,50.50
2023-05-12T22:33:34.653Z,50.40
2023-05-12T22:36:03.125Z,50.40
2023-05-12T22:38:31.793Z,50.40
2023-05-12T22:41:00.671Z,50.30
2023-05-12T22:43:29.984Z,50.30
2023-05-12T22:45:59.033Z,50.30
2023-05-12T22:48:28.016Z,50.20
2023-05-12T22:50:57.856Z,50.30
2023-05-12T22:53:27.114Z,50.30
2023-05-12T22:55:56.439Z,50.10
2023-05-12T22:58:25.807Z,50.20
2023-05-12T23:00:54.657Z,50.10
2023-05-12T23:03:23.850Z,50.10
2023-05-12T23:05:53.257Z,50.00
2023-05-12T23:08:22.129Z,50.00
2023-05-12T23:10:51.468Z,49.90
2023-05-12T23:13:20.268Z,49.80
2023-05-12T23:15:49.015Z,49.80
2023-05-12T23:18:18.292Z,49.70
2023-05-12T23:20:47.165Z,49.60
2023-05-12T23:23:16.506Z,49.60
2023-05-12T23:25:45.760Z,49.60
2023-05-12T23:28:14.703Z,49.50
2023-05-12T23:30:43.228Z,49.30
2023-05-12T23:33:12.626Z,49.20
2023-05-12T23:35:41.378Z,49.40
2023-05-12T23:38:10.173Z,49.40
2023-05-12T23:40:39.223Z,49.30
2023-05-12T23:43:07.281Z,49.20
2023-05-12T23:45:35.842Z,49.10
2023-05-12T23:48:04.986Z,49.00
2023-05-12T23:50:33.803Z,48.90
2023-05-12T23:53:02.494Z,49.00
2023-05-12T23:55:31.759Z,48.80
2023-05-12T23:58:01.000Z,48.80
